Time;durP1;ratioP1;P1;durP2;ratioP2;P2;SDS_P1;SDS_P2;PMS_P1;PMS_P2;Temp;Humidity;BMP_temperature;BMP_pressure;BME280_temperature;BME280_humidity;BME280_pressure;Samples;Min_cycle;Max_cycle;Signal;HPM_P1;HPM_P2
2023/11/14 00:02:12;;;;;;;12.77;3.77;;;18.50;72.10;;;;;;5120258;28;20437;-81
2023/11/14 00:04:41;;;;;;;18.50;4.63;;;18.50;72.10;;;;;;5122172;28;20452;-81
2023/11/14 00:07:10;;;;;;;13.93;3.60;;;18.50;72.40;;;;;;5120634;28;20492;-81
2023/11/14 00:09:38;;;;;;;13.10;3.83;;;18.50;72.40;;;;;;5117713;28;20468;-81
2023/11/14 00:12:09;;;;;;;11.37;4.10;;;18.50;72.20;;;;;;5119802;28;20467;-82
2023/11/14 00:14:38;;;;;;;11.83;3.33;;;18.50;72.20;;;;;;5120440;28;20432;-80
2023/11/14 00:17:06;;;;;;;14.57;4.07;;;18.50;72.40;;;;;;5125022;28;20475;-80
2023/11/14 00:19:39;;;;;;;17.57;3.77;;;18.50;72.00;;;;;;5112679;28;20468;-80
2023/11/14 00:22:14;;;;;;;17.40;4.37;;;18.50;72.30;;;;;;5115498;28;20439;-81
2023/11/14 00:24:48;;;;;;;17.23;3.97;;;18.50;72.40;;;;;;5120061;28;20524;-79
2023/11/14 00:27:17;;;;;;;12.30;3.80;;;18.40;72.70;;;;;;5119898;28;20443;-78
2023/11/14 00:29:46;;;;;;;12.67;3.30;;;18.50;72.50;;;;;;5127675;28;20467;-80
2023/11/14 00:32:18;;;;;;;17.13;3.93;;;18.50;72.50;;;;;;5133779;28;20436;-80
2023/11/14 00:35:01;;;;;;;16.53;4.03;;;18.50;72.50;;;;;;5118769;28;20530;-80
2023/11/14 00:37:31;;;;;;;18.07;3.93;;;18.50;72.60;;;;;;5117589;28;20466;-81
2023/11/14 00:40:04;;;;;;;12.30;3.70;;;18.50;72.40;;;;;;5118695;28;20463;-81
2023/11/14 00:42:33;;;;;;;16.27;4.30;;;18.50;72.50;;;;;;5117714;28;20432;-79
2023/11/14 00:45:02;;;;;;;12.20;4.20;;;18.50;72.30;;;;;;5118171;28;20464;-81
2023/11/14 00:47:31;;;;;;;16.27;4.00;;;18.50;72.40;;;;;;5112668;28;20982;-80
2023/11/14 00:50:03;;;;;;;14.37;4.20;;;18.50;72.40;;;;;;5112783;28;20486;-80
2023/11/14 00:52:33;;;;;;;18.10;4.43;;;18.50;72.40;;;;;;5106604;28;20436;-80
2023/11/14 00:55:02;;;;;;;12.90;3.20;;;18.50;72.50;;;;;;5094943;28;20490;-80
2023/11/14 00:57:30;;;;;;;13.30;3.83;;;18.50;72.50;;;;;;5092630;28;20437;-80
2023/11/14 00:59:58;;;;;;;7.63;3.47;;;18.50;72.20;;;;;;5095889;28;20456;-81
2023/11/14 01:02:30;;;;;;;25.70;4.33;;;18.50;72.60;;;;;;5095741;28;20490;-79
2023/11/14 01:04:59;;;;;;;13.60;3.80;;;18.50;72.60;;;;;;5101296;28;20463;-79
2023/11/14 01:07:29;;;;;;;16.43;3.57;;;18.50;72.70;;;;;;5102662;28;20463;-77
2023/11/14 01:09:57;;;;;;;12.20;4.10;;;18.50;72.60;;;;;;5099292;28;20490;-82
2023/11/14 01:12:25;;;;;;;12.67;3.73;;;18.50;72.60;;;;;;5097744;28;20474;-79
2023/11/14 01:14:54;;;;;;;16.83;4.03;;;18.50;72.60;;;;;;5101064;28;20429;-81
2023/11/14 01:17:22;;;;;;;11.67;4.00;;;18.50;72.60;;;;;;5109643;28;20449;-79
2023/11/14 01:19:56;;;;;;;20.10;3.73;;;18.50;72.40;;;;;;5102121;28;20465;-78
2023/11/14 01:22:25;;;;;;;16.03;3.90;;;18.50;72.50;;;;;;5101206;28;20419;-78
2023/11/14 01:24:55;;;;;;;15.17;3.90;;;18.50;72.30;;;;;;5109405;28;20495;-80
2023/11/14 01:27:26;;;;;;;16.10;4.03;;;18.50;72.40;;;;;;5089224;28;20516;-78
2023/11/14 01:29:55;;;;;;;15.13;3.10;;;18.50;72.40;;;;;;5101453;28;20514;-79
2023/11/14 01:32:27;;;;;;;12.10;3.77;;;18.50;72.50;;;;;;5097770;28;20441;-78
2023/11/14 01:34:56;;;;;;;14.63;4.03;;;18.50;72.40;;;;;;5098779;28;20440;-78
2023/11/14 01:37:29;;;;;;;13.13;3.50;;;18.50;72.50;;;;;;5097687;28;20445;-78
2023/11/14 01:40:06;;;;;;;14.00;3.60;;;18.50;72.50;;;;;;5097958;28;20471;-78
2023/11/14 01:42:36;;;;;;;9.70;3.77;;;18.50;72.50;;;;;;5082330;28;20432;-77
2023/11/14 01:45:06;;;;;;;13.43;4.40;;;18.50;72.40;;;;;;5096284;28;20469;-78
2023/11/14 01:47:33;;;;;;;14.77;3.87;;;18.50;72.40;;;;;;5097882;28;20439;-78
2023/11/14 01:50:02;;;;;;;14.93;3.70;;;18.50;73.10;;;;;;5098694;28;20497;-78
2023/11/14 01:52:34;;;;;;;12.07;3.80;;;18.60;72.40;;;;;;5100351;28;20432;-79
2023/11/14 01:55:16;;;;;;;14.97;3.50;;;18.50;72.40;;;;;;5100430;28;20429;-78
2023/11/14 01:57:58;;;;;;;12.40;3.43;;;18.60;72.40;;;;;;5099495;28;20445;-78
2023/11/14 02:00:30;;;;;;;18.70;3.93;;;18.60;72.40;;;;;;5101230;28;20493;-77
2023/11/14 02:03:04;;;;;;;10.03;3.80;;;18.60;72.50;;;;;;5092588;28;20460;-77
2023/11/14 02:05:32;;;;;;;17.80;3.60;;;18.60;72.40;;;;;;5092581;28;20464;-77
2023/11/14 02:08:00;;;;;;;12.50;3.20;;;18.60;72.30;;;;;;5096765;28;20444;-77
2023/11/14 02:10:30;;;;;;;14.83;3.80;;;18.60;72.50;;;;;;5097028;28;20467;-76
2023/11/14 02:12:58;;;;;;;14.40;3.93;;;18.60;72.40;;;;;;5097153;28;20448;-76
2023/11/14 02:15:26;;;;;;;13.90;3.60;;;18.60;72.50;;;;;;5096583;28;20437;-76
2023/11/14 02:17:54;;;;;;;10.47;3.47;;;18.60;72.50;;;;;;5097474;28;20491;-76
2023/11/14 02:20:23;;;;;;;10.53;3.17;;;18.60;72.20;;;;;;5077379;28;20552;-76
2023/11/14 02:22:52;;;;;;;11.80;4.10;;;18.60;72.30;;;;;;5092612;28;20447;-77
2023/11/14 02:25:22;;;;;;;10.53;3.10;;;18.60;72.30;;;;;;5093022;28;20564;-77
2023/11/14 02:27:50;;;;;;;12.70;3.63;;;18.60;72.20;;;;;;5075736;28;20469;-78
2023/11/14 02:30:18;;;;;;;11.77;3.80;;;18.60;72.40;;;;;;5084817;28;20470;-77
2023/11/14 02:32:47;;;;;;;18.10;4.10;;;18.60;72.30;;;;;;5083346;28;20469;-78
2023/11/14 02:35:15;;;;;;;17.03;3.70;;;18.60;72.20;;;;;;5098491;28;20440;-78
2023/11/14 02:37:44;;;;;;;13.20;3.57;;;18.60;72.30;;;;;;5093649;28;20485;-78
2023/11/14 02:40:13;;;;;;;19.37;4.03;;;18.70;72.30;;;;;;5096749;28;20506;-78
2023/11/14 02:42:45;;;;;;;11.87;3.60;;;18.60;72.30;;;;;;5083412;28;20443;-78
2023/11/14 02:45:14;;;;;;;13.47;3.63;;;18.60;72.30;;;;;;5097331;28;20465;-77
2023/11/14 02:47:42;;;;;;;13.70;3.60;;;18.60;72.10;;;;;;5111258;28;20508;-77
2023/11/14 02:50:13;;;;;;;16.07;3.90;;;18.60;71.90;;;;;;5099303;28;20556;-78
2023/11/14 02:52:41;;;;;;;17.67;4.00;;;18.60;72.30;;;;;;5118100;28;20462;-79
2023/11/14 02:55:10;;;;;;;11.37;3.50;;;18.60;72.40;;;;;;5122645;28;20436;-79
2023/11/14 02:57:38;;;;;;;13.03;3.33;;;18.60;72.30;;;;;;5108746;28;20502;-78
2023/11/14 03:00:15;;;;;;;15.57;3.43;;;18.60;72.20;;;;;;5111346;28;20460;-78
2023/11/14 03:02:44;;;;;;;16.63;3.90;;;18.50;72.30;;;;;;5102414;28;20467;-78
2023/11/14 03:05:12;;;;;;;13.17;3.47;;;18.50;72.50;;;;;;5102822;28;20471;-79
2023/11/14 03:07:41;;;;;;;13.60;3.50;;;18.50;72.50;;;;;;5108468;28;20483;-78
2023/11/14 03:10:10;;;;;;;13.90;3.50;;;18.50;72.50;;;;;;5122532;28;20471;-78
2023/11/14 03:12:39;;;;;;;15.13;3.60;;;18.50;72.80;;;;;;5103454;28;21023;-79
2023/11/14 03:15:10;;;;;;;16.80;4.33;;;18.50;72.50;;;;;;5101250;28;20449;-77
2023/11/14 03:17:38;;;;;;;9.93;3.57;;;18.50;72.50;;;;;;5103555;28;20445;-79
2023/11/14 03:20:08;;;;;;;18.40;4.10;;;18.50;72.70;;;;;;5103827;28;20469;-79
2023/11/14 03:22:51;;;;;;;15.00;4.00;;;18.50;72.50;;;;;;5106345;28;20540;-77
2023/11/14 03:25:19;;;;;;;11.50;3.13;;;18.50;72.80;;;;;;5104818;28;20518;-78
2023/11/14 03:27:48;;;;;;;13.23;3.47;;;18.50;72.70;;;;;;5117734;28;20440;-79
2023/11/14 03:30:19;;;;;;;12.37;3.80;;;18.40;72.70;;;;;;5115494;28;20452;-78
2023/11/14 03:32:47;;;;;;;12.23;3.40;;;18.50;72.90;;;;;;5098528;28;20492;-79
2023/11/14 03:35:15;;;;;;;9.13;2.97;;;18.40;72.40;;;;;;5102556;28;20444;-79
2023/11/14 03:37:44;;;;;;;15.20;3.67;;;18.40;72.30;;;;;;5117032;28;20451;-78
2023/11/14 03:40:13;;;;;;;17.70;4.40;;;18.40;72.80;;;;;;5105707;28;20537;-78
2023/11/14 03:42:42;;;;;;;14.30;3.90;;;18.40;72.60;;;;;;5103057;28;20444;-80
2023/11/14 03:45:11;;;;;;;15.23;3.77;;;18.40;72.80;;;;;;5104533;28;20473;-79
2023/11/14 03:47:42;;;;;;;11.80;2.70;;;18.40;72.60;;;;;;5104437;28;20424;-78
2023/11/14 03:50:11;;;;;;;15.97;3.70;;;18.40;72.80;;;;;;5100931;28;20478;-79
2023/11/14 03:52:40;;;;;;;13.83;3.87;;;18.40;72.70;;;;;;5103217;28;20530;-77
2023/11/14 03:55:11;;;;;;;16.53;3.90;;;18.50;72.40;;;;;;5108292;28;20436;-77
2023/11/14 03:57:40;;;;;;;17.90;3.60;;;18.40;72.40;;;;;;5117592;28;20497;-78
2023/11/14 04:00:10;;;;;;;13.80;3.60;;;18.40;72.50;;;;;;5108174;28;20510;-79
2023/11/14 04:02:38;;;;;;;11.70;3.70;;;18.50;72.60;;;;;;5082602;28;20456;-78
2023/11/14 04:05:09;;;;;;;13.90;3.60;;;18.50;72.50;;;;;;5096270;28;20502;-78
2023/11/14 04:07:38;;;;;;;14.13;3.10;;;18.50;72.40;;;;;;5078969;28;20456;-78
2023/11/14 04:10:08;;;;;;;13.80;3.30;;;18.50;72.40;;;;;;5093410;28;20447;-78
2023/11/14 04:12:37;;;;;;;13.70;3.63;;;18.50;72.50;;;;;;5097189;28;20464;-79
2023/11/14 04:15:07;;;;;;;15.20;3.00;;;18.50;72.30;;;;;;5093976;28;20533;-78
2023/11/14 04:17:35;;;;;;;10.57;3.03;;;18.50;72.40;;;;;;5092021;28;20471;-78
2023/11/14 04:20:05;;;;;;;13.10;3.00;;;18.50;72.50;;;;;;5092158;28;20460;-79
2023/11/14 04:22:35;;;;;;;11.90;3.27;;;18.50;72.20;;;;;;5108720;28;20530;-78
2023/11/14 04:25:04;;;;;;;13.00;3.60;;;18.50;72.20;;;;;;5110101;28;20476;-78
2023/11/14 04:27:33;;;;;;;8.73;3.30;;;18.50;72.20;;;;;;5096777;28;20475;-78
2023/11/14 04:30:01;;;;;;;12.20;3.53;;;18.50;72.30;;;;;;5096302;28;20469;-77
2023/11/14 04:32:30;;;;;;;8.60;3.40;;;18.50;72.20;;;;;;5104939;28;20457;-78
2023/11/14 04:34:58;;;;;;;12.03;3.17;;;18.50;72.10;;;;;;5098751;28;20553;-77
2023/11/14 04:37:27;;;;;;;11.57;2.77;;;18.50;72.30;;;;;;5101615;28;20435;-78
2023/11/14 04:39:56;;;;;;;16.60;3.57;;;18.50;72.30;;;;;;5086714;28;20499;-78
2023/11/14 04:42:25;;;;;;;11.83;3.10;;;18.50;72.20;;;;;;5100652;28;20436;-78
2023/11/14 04:44:53;;;;;;;16.00;3.50;;;18.50;72.30;;;;;;5103171;28;20449;-78
2023/11/14 04:47:22;;;;;;;16.27;3.40;;;18.50;72.20;;;;;;5083877;28;20473;-75
2023/11/14 04:49:52;;;;;;;9.93;3.07;;;18.50;72.30;;;;;;5083076;28;20469;-78
2023/11/14 04:52:21;;;;;;;13.70;3.33;;;18.50;72.20;;;;;;5095055;28;20446;-78
2023/11/14 04:55:00;;;;;;;14.17;3.50;;;18.60;72.30;;;;;;5100715;28;20444;-76
2023/11/14 04:57:28;;;;;;;8.73;2.80;;;18.60;72.30;;;;;;5099457;28;20531;-77
2023/11/14 04:59:56;;;;;;;12.80;3.50;;;18.60;72.20;;;;;;5100003;28;20491;-78
2023/11/14 05:02:25;;;;;;;11.07;3.40;;;18.50;72.10;;;;;;5090933;28;20457;-77
2023/11/14 05:04:54;;;;;;;14.20;3.17;;;18.50;72.20;;;;;;5100859;28;20449;-77
2023/11/14 05:07:23;;;;;;;16.73;3.40;;;18.50;72.20;;;;;;5091372;28;20469;-78
2023/11/14 05:09:52;;;;;;;10.00;2.70;;;18.50;72.10;;;;;;5093470;28;20970;-77
2023/11/14 05:12:23;;;;;;;8.80;2.80;;;18.50;72.10;;;;;;5090160;28;20446;-77
2023/11/14 05:14:51;;;;;;;12.10;3.60;;;18.50;72.20;;;;;;5092590;28;21021;-78
2023/11/14 05:17:20;;;;;;;7.47;2.50;;;18.50;72.40;;;;;;5090990;28;20437;-78
2023/11/14 05:19:49;;;;;;;9.70;2.80;;;18.50;72.30;;;;;;5086484;28;20479;-78
2023/11/14 05:22:18;;;;;;;13.30;3.10;;;18.50;72.20;;;;;;5095401;28;20444;-77
2023/11/14 05:24:47;;;;;;;13.33;2.90;;;18.50;72.20;;;;;;5098303;28;20498;-78
2023/11/14 05:27:16;;;;;;;11.70;3.27;;;18.50;72.30;;;;;;5098502;28;20475;-78
2023/11/14 05:29:47;;;;;;;10.77;3.10;;;18.50;72.10;;;;;;5099771;28;20522;-78
2023/11/14 05:32:15;;;;;;;14.93;3.30;;;18.50;72.10;;;;;;5098626;28;20502;-78
2023/11/14 05:34:45;;;;;;;8.33;2.83;;;18.50;72.10;;;;;;5082239;28;20441;-78
2023/11/14 05:37:13;;;;;;;15.40;3.30;;;18.50;71.80;;;;;;5089064;28;20562;-77
2023/11/14 05:39:42;;;;;;;15.93;3.30;;;18.50;72.20;;;;;;5090049;28;20496;-78
2023/11/14 05:42:10;;;;;;;13.10;3.40;;;18.50;72.20;;;;;;5077115;28;20442;-76
2023/11/14 05:44:39;;;;;;;13.30;3.13;;;18.50;71.90;;;;;;5080523;28;20479;-77
2023/11/14 05:47:09;;;;;;;7.47;2.60;;;18.50;72.00;;;;;;5097088;28;20507;-78
2023/11/14 05:49:40;;;;;;;10.53;3.40;;;18.50;72.20;;;;;;5096853;28;20465;-77
2023/11/14 05:52:08;;;;;;;12.40;3.60;;;18.50;72.30;;;;;;5097308;28;20486;-78
2023/11/14 05:54:38;;;;;;;8.97;2.73;;;18.50;72.10;;;;;;5095326;28;20471;-77
2023/11/14 05:57:06;;;;;;;12.13;3.53;;;18.50;72.20;;;;;;5085213;28;20495;-78
2023/11/14 05:59:34;;;;;;;8.47;3.40;;;18.50;72.10;;;;;;5097063;28;20461;-78
2023/11/14 06:02:03;;;;;;;13.63;3.20;;;18.50;71.80;;;;;;5096306;28;20452;-78
2023/11/14 06:04:36;;;;;;;9.83;3.20;;;18.50;72.40;;;;;;5097539;28;20441;-79
2023/11/14 06:07:04;;;;;;;11.70;3.43;;;18.50;72.10;;;;;;5092897;28;20464;-78
2023/11/14 06:09:33;;;;;;;18.83;4.27;;;18.50;72.30;;;;;;5089718;28;20561;-78
2023/11/14 06:12:01;;;;;;;12.60;3.00;;;18.50;72.00;;;;;;5091362;28;20468;-76
2023/11/14 06:14:29;;;;;;;13.00;3.10;;;18.50;72.10;;;;;;5087290;28;20457;-77
2023/11/14 06:16:58;;;;;;;11.53;3.13;;;18.50;72.10;;;;;;5094054;28;20441;-78
2023/11/14 06:19:28;;;;;;;16.40;3.37;;;18.50;72.10;;;;;;5095208;28;20422;-78
2023/11/14 06:21:58;;;;;;;10.13;3.30;;;18.50;72.10;;;;;;5097682;28;20447;-78
2023/11/14 06:24:26;;;;;;;11.33;3.17;;;18.50;72.00;;;;;;5098580;28;20445;-77
2023/11/14 06:26:55;;;;;;;13.97;3.77;;;18.40;72.30;;;;;;5097113;28;20499;-78
2023/11/14 06:29:24;;;;;;;12.43;3.37;;;18.50;71.90;;;;;;5092738;28;20446;-77
2023/11/14 06:31:52;;;;;;;10.60;3.23;;;18.50;72.40;;;;;;5081684;28;20532;-76
2023/11/14 06:34:22;;;;;;;5.40;2.27;;;18.50;72.30;;;;;;5095965;28;20441;-77
2023/11/14 06:36:50;;;;;;;8.93;2.97;;;18.50;72.20;;;;;;5096448;28;20451;-77
2023/11/14 06:39:19;;;;;;;11.20;3.27;;;18.50;72.30;;;;;;5092473;28;20464;-78
2023/11/14 06:41:49;;;;;;;7.77;2.50;;;18.50;72.10;;;;;;5089731;28;20437;-77
2023/11/14 06:44:18;;;;;;;7.97;2.50;;;18.50;72.20;;;;;;5095164;28;20448;-77
2023/11/14 06:46:47;;;;;;;6.97;2.60;;;18.50;72.40;;;;;;5094419;28;20464;-77
2023/11/14 06:49:16;;;;;;;11.47;3.40;;;18.50;72.10;;;;;;5093062;28;20552;-77
2023/11/14 06:51:44;;;;;;;9.00;3.20;;;18.50;72.10;;;;;;5095950;28;20528;-77
2023/11/14 06:54:13;;;;;;;8.57;3.17;;;18.50;72.10;;;;;;5096752;28;20467;-78
2023/11/14 06:56:43;;;;;;;12.03;2.37;;;18.50;72.10;;;;;;5096331;28;20445;-77
2023/11/14 06:59:11;;;;;;;10.90;3.33;;;18.50;71.80;;;;;;5097011;28;20471;-78
2023/11/14 07:01:40;;;;;;;13.57;2.93;;;18.50;71.80;;;;;;5095126;28;20519;-77
2023/11/14 07:04:10;;;;;;;7.83;2.80;;;18.50;71.60;;;;;;5087703;28;20533;-78
2023/11/14 07:06:38;;;;;;;7.57;2.70;;;18.50;71.80;;;;;;5092884;28;20476;-77
2023/11/14 07:09:06;;;;;;;12.90;3.43;;;18.50;71.80;;;;;;5103221;28;20443;-78
2023/11/14 07:11:35;;;;;;;12.67;3.20;;;18.50;71.80;;;;;;5105024;28;20507;-78
2023/11/14 07:14:06;;;;;;;9.07;2.83;;;18.50;72.00;;;;;;5094796;28;20448;-77
2023/11/14 07:16:35;;;;;;;7.10;2.40;;;18.50;71.90;;;;;;5104411;28;20456;-77
2023/11/14 07:19:04;;;;;;;12.57;3.63;;;18.50;71.80;;;;;;5113902;28;20424;-77
2023/11/14 07:21:32;;;;;;;12.57;3.27;;;18.50;72.00;;;;;;5095217;28;20500;-77
2023/11/14 07:24:01;;;;;;;11.50;2.90;;;18.50;71.70;;;;;;5093764;28;20440;-77
2023/11/14 07:26:29;;;;;;;9.87;2.97;;;18.50;71.90;;;;;;5093449;28;20532;-78
2023/11/14 07:28:57;;;;;;;11.80;2.90;;;18.50;71.90;;;;;;5094569;28;20461;-77
2023/11/14 07:31:26;;;;;;;5.97;2.57;;;18.50;71.60;;;;;;5104171;28;20487;-78
2023/11/14 07:33:54;;;;;;;7.00;2.90;;;18.50;72.00;;;;;;5088547;28;20487;-78
2023/11/14 07:36:24;;;;;;;6.30;2.40;;;18.50;72.10;;;;;;5106244;28;20449;-78
2023/11/14 07:38:52;;;;;;;8.30;2.60;;;18.50;72.20;;;;;;5108026;28;20484;-79
2023/11/14 07:41:21;;;;;;;11.70;3.00;;;18.50;72.00;;;;;;5096580;28;20890;-79
2023/11/14 07:43:49;;;;;;;9.03;2.73;;;18.50;72.10;;;;;;5112396;28;20423;-76
2023/11/14 07:46:18;;;;;;;17.33;3.40;;;18.50;72.20;;;;;;5100957;28;20472;-79
2023/11/14 07:48:49;;;;;;;12.93;2.90;;;18.50;72.80;;;;;;5100752;28;20503;-79
2023/11/14 07:51:17;;;;;;;9.93;2.63;;;18.50;72.10;;;;;;5104249;28;20473;-78
2023/11/14 07:53:47;;;;;;;11.20;3.07;;;18.50;72.10;;;;;;5108497;28;20440;-79
2023/11/14 07:56:15;;;;;;;7.73;3.37;;;18.60;72.20;;;;;;5099063;28;20441;-79
2023/11/14 07:58:44;;;;;;;10.53;2.60;;;18.60;72.00;;;;;;5087332;28;20456;-80
2023/11/14 08:01:12;;;;;;;9.37;3.07;;;18.60;72.00;;;;;;5102566;28;20468;-77
2023/11/14 08:03:41;;;;;;;9.77;2.43;;;18.60;71.70;;;;;;5086492;28;20454;-79
2023/11/14 08:06:16;;;;;;;8.70;3.27;;;18.60;71.70;;;;;;5099550;28;20445;-79
2023/11/14 08:08:44;;;;;;;13.40;3.57;;;18.60;72.10;;;;;;5096091;28;20456;-79
2023/11/14 08:11:13;;;;;;;13.43;3.27;;;18.60;72.10;;;;;;5090285;28;20469;-79
2023/11/14 08:13:41;;;;;;;11.23;3.37;;;18.70;71.80;;;;;;5086233;28;20472;-79
2023/11/14 08:16:13;;;;;;;15.63;3.10;;;18.70;72.20;;;;;;5096791;28;20436;-78
2023/11/14 08:18:41;;;;;;;11.93;2.90;;;18.70;71.50;;;;;;5094793;28;20444;-79
2023/11/14 08:21:10;;;;;;;8.53;2.90;;;18.70;71.80;;;;;;5092938;28;20519;-78
2023/11/14 08:23:42;;;;;;;14.83;3.00;;;18.70;71.70;;;;;;5098366;28;20445;-78
2023/11/14 08:26:11;;;;;;;10.60;3.10;;;18.70;71.70;;;;;;5099812;28;20440;-78
2023/11/14 08:28:43;;;;;;;12.20;3.00;;;18.70;71.60;;;;;;5106458;28;20468;-79
2023/11/14 08:31:14;;;;;;;9.17;3.00;;;18.80;71.90;;;;;;5106158;28;20528;-79
2023/11/14 08:33:46;;;;;;;10.60;3.27;;;18.80;71.90;;;;;;5111971;28;20459;-79
2023/11/14 08:36:14;;;;;;;10.50;3.77;;;18.80;71.50;;;;;;5112980;28;20414;-79
2023/11/14 08:38:48;;;;;;;9.43;2.80;;;18.80;71.90;;;;;;5105030;28;20464;-80
2023/11/14 08:41:19;;;;;;;11.30;3.43;;;18.90;71.80;;;;;;5093259;28;20539;-79
2023/11/14 08:43:59;;;;;;;9.17;2.67;;;18.90;71.80;;;;;;5097016;28;20484;-78
2023/11/14 08:46:30;;;;;;;12.77;2.80;;;18.90;71.80;;;;;;5092214;28;20457;-79
2023/11/14 08:49:04;;;;;;;11.10;3.10;;;18.90;71.60;;;;;;5092790;28;20468;-78
2023/11/14 08:51:47;;;;;;;14.00;3.50;;;19.00;71.70;;;;;;5099045;28;20515;-78
2023/11/14 08:54:22;;;;;;;9.10;2.93;;;19.00;71.80;;;;;;5095667;28;20500;-79
2023/11/14 08:56:55;;;;;;;12.60;3.40;;;19.00;71.80;;;;;;5112968;28;20439;-79
2023/11/14 08:59:26;;;;;;;11.60;3.10;;;19.00;71.80;;;;;;5103995;28;20441;-79
2023/11/14 09:01:57;;;;;;;11.50;2.77;;;19.10;71.70;;;;;;5100302;28;20448;-78
2023/11/14 09:04:30;;;;;;;10.57;3.10;;;19.20;71.40;;;;;;5095847;28;20444;-79
2023/11/14 09:06:58;;;;;;;10.03;3.47;;;19.20;71.60;;;;;;5094853;28;20440;-77
2023/11/14 09:09:35;;;;;;;13.67;3.23;;;19.20;71.50;;;;;;5091610;28;20473;-78
2023/11/14 09:12:12;;;;;;;16.47;3.63;;;19.20;71.40;;;;;;5102282;28;20517;-79
2023/11/14 09:14:41;;;;;;;10.47;3.37;;;19.20;71.50;;;;;;5084976;28;20447;-79
2023/11/14 09:17:36;;;;;;;13.27;3.30;;;19.20;71.50;;;;;;5097212;28;20452;-79
2023/11/14 09:20:19;;;;;;;6.17;2.77;;;19.20;71.70;;;;;;5097569;28;20444;-79
2023/11/14 09:22:58;;;;;;;11.60;3.73;;;19.30;71.50;;;;;;5090103;28;20449;-80
2023/11/14 09:25:49;;;;;;;12.80;3.43;;;19.30;71.20;;;;;;5097484;28;20450;-80
2023/11/14 09:28:22;;;;;;;15.47;3.60;;;19.30;71.40;;;;;;5092403;28;20472;-78
2023/11/14 09:31:04;;;;;;;10.93;3.20;;;19.30;71.10;;;;;;5104071;28;20446;-79
2023/11/14 09:33:35;;;;;;;10.33;2.90;;;19.30;71.50;;;;;;5102282;28;20444;-78
2023/11/14 09:36:06;;;;;;;10.73;3.17;;;19.30;71.40;;;;;;5090888;28;20444;-78
2023/11/14 09:38:44;;;;;;;8.63;3.17;;;19.30;71.60;;;;;;5106144;28;20441;-81
2023/11/14 09:41:14;;;;;;;8.33;2.97;;;19.40;71.80;;;;;;5092643;28;20499;-79
2023/11/14 09:43:42;;;;;;;10.67;2.93;;;19.50;71.30;;;;;;5110164;28;20472;-79
2023/11/14 09:48:53;;;;;;;;;;;;;;;;;;;;;
2023/11/14 09:59:08;;;;;;;17.80;3.83;;;20.10;71.10;;;;;;4899029;29;20473;-78
2023/11/14 10:02:05;;;;;;;15.23;3.80;;;20.30;70.70;;;;;;4925338;29;20508;-79
2023/11/14 10:04:39;;;;;;;14.03;3.83;;;20.40;70.00;;;;;;4979907;28;20480;-79
2023/11/14 10:07:56;;;;;;;14.60;3.97;;;20.50;69.80;;;;;;5011926;28;20486;-81
2023/11/14 10:10:29;;;;;;;10.80;3.37;;;20.50;69.80;;;;;;5035894;28;20503;-79
2023/11/14 10:13:18;;;;;;;12.00;3.90;;;20.60;69.70;;;;;;5048263;28;20505;-78
2023/11/14 10:15:48;;;;;;;18.70;4.27;;;20.60;69.20;;;;;;5043455;28;20444;-78
2023/11/14 10:18:29;;;;;;;16.17;3.80;;;20.70;69.60;;;;;;5040351;28;20446;-78
2023/11/14 10:20:58;;;;;;;15.90;3.80;;;20.80;69.50;;;;;;5045033;28;20474;-78
2023/11/14 10:23:32;;;;;;;18.87;4.70;;;21.00;69.90;;;;;;5048590;28;20451;-79
2023/11/14 10:26:10;;;;;;;14.23;3.87;;;21.20;69.70;;;;;;5042684;28;20447;-78
2023/11/14 10:28:42;;;;;;;11.83;3.60;;;21.20;69.00;;;;;;5040922;28;20474;-77
2023/11/14 10:31:12;;;;;;;13.57;3.70;;;21.20;69.40;;;;;;5037455;28;20474;-77
2023/11/14 10:33:47;;;;;;;15.03;4.10;;;21.40;69.70;;;;;;5038114;28;20451;-77
2023/11/14 10:36:21;;;;;;;14.13;3.90;;;21.70;69.50;;;;;;5034742;28;20441;-77
2023/11/14 10:39:05;;;;;;;14.33;3.63;;;21.70;68.40;;;;;;5039547;28;20438;-77
2023/11/14 10:41:40;;;;;;;14.07;4.20;;;21.70;68.50;;;;;;5043362;28;20455;-77
2023/11/14 10:44:09;;;;;;;11.67;4.00;;;21.80;68.50;;;;;;5044552;28;20475;-77
2023/11/14 10:46:52;;;;;;;18.17;4.13;;;21.70;68.10;;;;;;5037935;28;20447;-77
2023/11/14 10:49:21;;;;;;;20.27;3.33;;;21.80;68.90;;;;;;5035492;28;20498;-76
2023/11/14 10:51:50;;;;;;;21.27;4.20;;;21.80;68.10;;;;;;5037973;28;20451;-77
2023/11/14 10:54:28;;;;;;;11.33;3.57;;;21.90;68.80;;;;;;5029330;28;20476;-78
2023/11/14 10:56:58;;;;;;;16.40;4.00;;;22.10;68.50;;;;;;5034667;28;20467;-78
2023/11/14 10:59:32;;;;;;;13.07;3.60;;;22.30;68.70;;;;;;5033168;28;20432;-78
2023/11/14 11:02:03;;;;;;;11.50;3.47;;;22.60;68.60;;;;;;5032370;28;20495;-77
2023/11/14 11:04:33;;;;;;;9.87;3.57;;;22.80;68.30;;;;;;5031813;28;20444;-77
2023/11/14 11:07:02;;;;;;;11.30;3.13;;;23.00;67.80;;;;;;5031570;28;20496;-77
2023/11/14 11:09:34;;;;;;;9.23;3.03;;;23.30;67.50;;;;;;5035174;28;20446;-77
2023/11/14 11:12:03;;;;;;;9.23;3.07;;;23.50;67.10;;;;;;5024396;28;20462;-77
2023/11/14 11:14:34;;;;;;;9.00;2.90;;;23.60;66.40;;;;;;5026417;28;20449;-78
2023/11/14 11:17:07;;;;;;;9.73;2.90;;;23.80;66.70;;;;;;5021933;28;20467;-77
2023/11/14 11:19:39;;;;;;;11.80;2.77;;;24.00;66.30;;;;;;5024861;28;20440;-78
2023/11/14 11:22:09;;;;;;;10.47;2.80;;;24.20;65.70;;;;;;5032029;28;20450;-78
2023/11/14 11:24:57;;;;;;;14.43;3.40;;;24.20;65.70;;;;;;5030426;28;20425;-77
2023/11/14 11:27:29;;;;;;;5.03;2.40;;;24.50;65.60;;;;;;5033697;28;20469;-77
2023/11/14 11:30:07;;;;;;;7.43;2.87;;;24.80;65.10;;;;;;5034378;28;20502;-78
2023/11/14 11:32:40;;;;;;;5.83;2.63;;;25.10;64.50;;;;;;5036795;28;20418;-78
2023/11/14 11:35:30;;;;;;;9.33;3.00;;;25.30;64.20;;;;;;5037709;28;20422;-78
2023/11/14 11:38:14;;;;;;;5.83;2.50;;;25.50;63.70;;;;;;5034237;28;20470;-78
2023/11/14 11:41:11;;;;;;;8.93;3.10;;;25.70;63.10;;;;;;5037663;28;20482;-78
2023/11/14 11:43:48;;;;;;;7.80;2.63;;;25.90;62.60;;;;;;4998405;28;20455;-78
2023/11/14 11:46:48;;;;;;;6.80;2.60;;;26.00;62.40;;;;;;5032423;28;20453;-78
2023/11/14 11:49:32;;;;;;;10.57;3.20;;;25.80;61.70;;;;;;5022597;28;20514;-77
2023/11/14 11:52:19;;;;;;;9.13;3.10;;;25.70;62.10;;;;;;5033931;28;20485;-77
2023/11/14 11:59:01;;;;;;;16.60;3.43;;;25.60;62.00;;;;;;4937966;29;20505;-77
2023/11/14 12:05:26;;;;;;;9.10;3.20;;;25.00;62.00;;;;;;4950205;28;20465;-78
2023/11/14 12:08:27;;;;;;;14.77;3.70;;;24.60;62.60;;;;;;5029443;28;20475;-77
2023/11/14 12:11:26;;;;;;;14.63;3.50;;;24.40;63.20;;;;;;5035838;28;20466;-78
2023/11/14 12:14:19;;;;;;;14.43;3.20;;;24.10;63.70;;;;;;5033799;28;20426;-78
2023/11/14 12:17:06;;;;;;;12.50;3.40;;;24.00;64.00;;;;;;5033078;28;20460;-78
2023/11/14 12:20:09;;;;;;;13.53;3.37;;;23.90;64.50;;;;;;5034769;28;20979;-78
2023/11/14 12:23:07;;;;;;;13.90;4.00;;;23.70;64.60;;;;;;5025427;28;20472;-78
2023/11/14 12:26:37;;;;;;;18.30;4.07;;;23.50;65.20;;;;;;5029350;28;20440;-78
2023/11/14 12:29:07;;;;;;;13.70;3.50;;;23.30;65.80;;;;;;5010896;28;20423;-78
2023/11/14 12:31:38;;;;;;;14.57;3.90;;;23.20;66.10;;;;;;5029570;28;20436;-78
2023/11/14 12:34:08;;;;;;;11.13;3.67;;;23.10;66.40;;;;;;5028445;28;20423;-78
2023/11/14 12:36:36;;;;;;;12.07;3.63;;;23.10;66.90;;;;;;5037140;28;20462;-79
2023/11/14 12:39:19;;;;;;;11.37;3.37;;;23.10;66.50;;;;;;5033013;28;20442;-78
2023/11/14 12:41:48;;;;;;;12.67;3.73;;;23.10;66.80;;;;;;5032409;28;20478;-77
2023/11/14 12:44:20;;;;;;;12.20;3.37;;;23.10;66.50;;;;;;5030765;28;20459;-78
2023/11/14 12:46:52;;;;;;;12.00;3.63;;;23.30;67.20;;;;;;5028366;28;20438;-78
2023/11/14 12:49:22;;;;;;;13.03;3.23;;;23.40;66.60;;;;;;5028225;28;20449;-78
2023/11/14 12:51:52;;;;;;;9.43;3.80;;;23.50;66.30;;;;;;5035675;28;20449;-78
2023/11/14 12:54:41;;;;;;;9.83;4.20;;;23.50;66.10;;;;;;5035920;28;20948;-77
2023/11/14 12:57:32;;;;;;;9.40;3.80;;;23.50;66.20;;;;;;5025978;28;20470;-76
2023/11/14 13:00:36;;;;;;;12.80;3.57;;;23.40;66.10;;;;;;5027965;28;21023;-77
2023/11/14 13:03:14;;;;;;;11.83;3.67;;;23.20;66.00;;;;;;5026004;28;20472;-78
2023/11/14 13:06:27;;;;;;;7.97;3.43;;;23.10;66.20;;;;;;5035614;28;20497;-78
2023/11/14 13:09:26;;;;;;;11.63;3.27;;;22.90;66.30;;;;;;4928414;29;20439;-76
2023/11/14 13:11:56;;;;;;;9.20;3.40;;;22.80;66.70;;;;;;4931180;29;20407;-77
2023/11/14 13:14:32;;;;;;;8.60;3.10;;;22.60;66.80;;;;;;4925145;29;20499;-77
2023/11/14 13:17:09;;;;;;;12.47;3.00;;;22.60;67.00;;;;;;4938233;29;20510;-77
2023/11/14 13:20:27;;;;;;;9.83;3.37;;;22.50;67.00;;;;;;4920502;29;20460;-79
2023/11/14 13:23:03;;;;;;;10.83;3.50;;;22.40;67.40;;;;;;4942536;29;20492;-79
2023/11/14 13:25:40;;;;;;;11.13;3.60;;;22.20;67.60;;;;;;4941212;29;20416;-77
2023/11/14 13:28:17;;;;;;;13.20;3.40;;;22.20;67.80;;;;;;4929260;29;20492;-78